Time;durP1;ratioP1;P1;durP2;ratioP2;P2;SDS_P1;SDS_P2;PMS_P1;PMS_P2;Temp;Humidity;BMP_temperature;BMP_pressure;BME280_temperature;BME280_humidity;BME280_pressure;Samples;Min_cycle;Max_cycle;Signal;HPM_P1;HPM_P2
2022/05/06 00:02:08;;;;;;;40.30;25.25;;;9.90;99.90;;;;;;5030280;28;20513;-78
2022/05/06 00:04:34;;;;;;;41.97;25.05;;;9.90;99.90;;;;;;5045258;28;20411;-77
2022/05/06 00:07:00;;;;;;;35.10;23.15;;;10.00;99.90;;;;;;5036224;28;20065;-77
2022/05/06 00:09:25;;;;;;;35.38;23.05;;;9.80;99.90;;;;;;5048350;28;20033;-76
2022/05/06 00:11:51;;;;;;;38.63;24.55;;;9.80;99.90;;;;;;5048662;28;20049;-76
2022/05/06 00:14:18;;;;;;;36.63;24.42;;;9.70;99.90;;;;;;5046792;28;20490;-76
2022/05/06 00:16:43;;;;;;;39.28;25.45;;;9.60;99.90;;;;;;5029845;28;20060;-76
2022/05/06 00:19:09;;;;;;;44.13;25.70;;;9.60;99.90;;;;;;5046977;28;20045;-76
2022/05/06 00:21:35;;;;;;;41.63;24.48;;;9.50;99.90;;;;;;5031271;28;20575;-76
2022/05/06 00:24:02;;;;;;;35.65;22.88;;;9.50;99.90;;;;;;5039368;28;20481;-77
2022/05/06 00:26:27;;;;;;;38.47;24.60;;;9.50;99.90;;;;;;5040431;28;20046;-76
2022/05/06 00:28:53;;;;;;;38.53;24.92;;;9.50;99.90;;;;;;5047281;28;20517;-76
2022/05/06 00:31:18;;;;;;;39.10;24.35;;;9.50;99.90;;;;;;5025161;28;20045;-77
2022/05/06 00:33:44;;;;;;;38.72;23.77;;;9.50;99.90;;;;;;5047256;28;20048;-77
2022/05/06 00:36:10;;;;;;;39.33;23.58;;;9.60;99.90;;;;;;5045495;28;20115;-77
2022/05/06 00:38:36;;;;;;;38.45;24.15;;;9.60;99.90;;;;;;5048272;28;20179;-77
2022/05/06 00:41:01;;;;;;;33.05;20.77;;;9.60;99.90;;;;;;5049829;28;20387;-77
2022/05/06 00:43:27;;;;;;;32.08;20.73;;;9.60;99.90;;;;;;5051234;28;20036;-77
2022/05/06 00:45:57;;;;;;;29.90;20.75;;;9.60;99.90;;;;;;5053142;28;20158;-77
2022/05/06 00:48:31;;;;;;;31.08;20.08;;;9.60;99.90;;;;;;5051634;28;20060;-77
2022/05/06 00:50:58;;;;;;;29.45;19.83;;;9.60;99.90;;;;;;5051898;28;20061;-77
2022/05/06 00:53:24;;;;;;;29.83;19.92;;;9.60;99.90;;;;;;5052258;28;20465;-77
2022/05/06 00:55:51;;;;;;;33.92;21.63;;;9.40;99.90;;;;;;5051964;28;20099;-77
2022/05/06 00:58:18;;;;;;;30.25;20.88;;;9.40;99.90;;;;;;5052518;28;20040;-77
2022/05/06 01:00:44;;;;;;;30.38;20.63;;;9.40;99.90;;;;;;5041812;28;20041;-77
2022/05/06 01:03:10;;;;;;;33.80;22.52;;;9.40;99.90;;;;;;5051737;28;20470;-77
2022/05/06 01:05:36;;;;;;;35.83;22.95;;;9.40;99.90;;;;;;5050685;28;20084;-77
2022/05/06 01:08:02;;;;;;;29.67;19.27;;;9.40;99.90;;;;;;5043435;28;20041;-77
2022/05/06 01:10:28;;;;;;;36.50;23.23;;;9.20;99.90;;;;;;5051126;28;20079;-76
2022/05/06 01:12:53;;;;;;;40.13;25.02;;;8.90;99.90;;;;;;5035177;28;20048;-76
2022/05/06 01:15:21;;;;;;;36.70;24.35;;;8.70;99.90;;;;;;5044405;28;20119;-76
2022/05/06 01:17:47;;;;;;;36.15;22.73;;;8.60;99.90;;;;;;5047390;28;20033;-76
2022/05/06 01:20:17;;;;;;;35.78;22.83;;;8.70;99.90;;;;;;5043083;28;20065;-76
2022/05/06 01:22:48;;;;;;;36.05;23.08;;;8.70;99.90;;;;;;5052633;28;20045;-76
2022/05/06 01:25:14;;;;;;;36.28;22.90;;;8.80;99.90;;;;;;5067710;28;20035;-76
2022/05/06 01:27:55;;;;;;;32.75;21.73;;;8.80;99.90;;;;;;5050806;28;20057;-76
2022/05/06 01:30:38;;;;;;;35.42;22.40;;;8.70;99.90;;;;;;5045939;28;20041;-76
2022/05/06 01:33:06;;;;;;;35.17;23.48;;;8.80;99.90;;;;;;5047005;28;20384;-76
2022/05/06 01:35:41;;;;;;;33.65;23.33;;;8.80;99.90;;;;;;5031766;28;20463;-76
2022/05/06 01:38:07;;;;;;;35.92;22.83;;;8.90;99.90;;;;;;5045363;28;20045;-76
2022/05/06 01:40:59;;;;;;;32.10;22.85;;;8.90;99.90;;;;;;5050829;28;20491;-76
2022/05/06 01:43:25;;;;;;;32.45;22.52;;;8.90;99.90;;;;;;5049279;28;20037;-76
2022/05/06 01:45:52;;;;;;;31.45;21.08;;;8.90;99.90;;;;;;5047547;28;20041;-76
2022/05/06 01:48:20;;;;;;;32.97;21.40;;;8.70;99.90;;;;;;5048291;28;20491;-76
2022/05/06 01:50:47;;;;;;;33.15;22.17;;;8.70;99.90;;;;;;5042198;28;20048;-76
2022/05/06 01:53:16;;;;;;;32.28;21.08;;;8.80;99.90;;;;;;5052718;28;20041;-76
2022/05/06 01:55:43;;;;;;;32.28;21.48;;;8.70;99.90;;;;;;5051905;28;20720;-76
2022/05/06 01:58:08;;;;;;;30.70;20.45;;;8.70;99.90;;;;;;5050812;28;20040;-76
2022/05/06 02:00:36;;;;;;;29.02;17.20;;;8.70;99.90;;;;;;5051207;28;20128;-76
2022/05/06 02:03:02;;;;;;;26.10;17.25;;;8.70;99.90;;;;;;5039291;28;20041;-76
2022/05/06 02:05:28;;;;;;;16.63;11.35;;;8.60;99.90;;;;;;5050530;28;20032;-76
2022/05/06 02:07:53;;;;;;;14.15;10.00;;;8.60;99.90;;;;;;5043948;28;20043;-76
2022/05/06 02:10:21;;;;;;;19.42;13.10;;;8.60;99.90;;;;;;5052085;28;20036;-76
2022/05/06 02:12:47;;;;;;;18.10;12.55;;;8.60;99.90;;;;;;5032284;28;20132;-76
2022/05/06 02:15:18;;;;;;;18.70;13.35;;;8.60;99.90;;;;;;5035137;28;20037;-76
2022/05/06 02:17:43;;;;;;;21.90;13.30;;;8.50;99.90;;;;;;5051054;28;20045;-76
2022/05/06 02:20:11;;;;;;;18.55;13.35;;;8.50;99.90;;;;;;5037155;28;20041;-76
2022/05/06 02:22:42;;;;;;;19.52;14.02;;;8.50;99.90;;;;;;5015796;28;20040;-76
2022/05/06 02:25:09;;;;;;;24.88;15.35;;;8.30;99.90;;;;;;5051308;28;20078;-76
2022/05/06 02:27:39;;;;;;;26.90;18.00;;;8.20;99.90;;;;;;5045029;28;20045;-76
2022/05/06 02:35:33;;;;;;;;;;;7.90;99.90;;;;;;5033359;28;20420;-76
2022/05/06 02:38:00;;;;;;;33.30;21.98;;;7.90;99.90;;;;;;5046121;28;19921;-76
2022/05/06 02:40:25;;;;;;;30.10;20.27;;;7.90;99.90;;;;;;5042293;28;20112;-76
2022/05/06 02:42:51;;;;;;;30.80;20.33;;;7.80;99.90;;;;;;5049793;28;20068;-76
2022/05/06 02:45:16;;;;;;;36.70;22.48;;;7.90;99.90;;;;;;5049939;28;20041;-75
2022/05/06 02:47:42;;;;;;;35.20;22.63;;;7.90;99.90;;;;;;5050202;28;20045;-75
2022/05/06 02:50:08;;;;;;;34.35;22.25;;;7.90;99.90;;;;;;5020075;28;20037;-75
2022/05/06 02:52:33;;;;;;;35.25;22.23;;;7.80;99.90;;;;;;5031565;28;20049;-75
2022/05/06 02:54:59;;;;;;;31.92;21.02;;;7.80;99.90;;;;;;5030780;28;20125;-75
2022/05/06 02:57:25;;;;;;;31.13;18.90;;;7.80;99.90;;;;;;5043080;28;20163;-75
2022/05/06 02:59:50;;;;;;;28.27;18.83;;;7.70;99.90;;;;;;5039396;28;20045;-75
2022/05/06 03:02:16;;;;;;;29.38;20.15;;;7.70;99.90;;;;;;5044602;28;20554;-76
2022/05/06 03:04:42;;;;;;;29.38;19.80;;;7.80;99.90;;;;;;5049237;28;20033;-76
2022/05/06 03:07:08;;;;;;;32.78;21.48;;;7.80;99.90;;;;;;5050107;28;20041;-75
2022/05/06 03:09:35;;;;;;;34.50;21.95;;;7.90;99.90;;;;;;5040877;28;20415;-75
2022/05/06 03:12:01;;;;;;;30.63;20.33;;;8.00;99.90;;;;;;5031180;28;20048;-75
2022/05/06 03:14:26;;;;;;;31.60;20.88;;;8.00;99.90;;;;;;5034616;28;20041;-75
2022/05/06 03:16:52;;;;;;;34.35;21.88;;;8.10;99.90;;;;;;5033553;28;20044;-75
2022/05/06 03:19:18;;;;;;;35.40;21.27;;;8.10;99.90;;;;;;5042780;28;20199;-75
2022/05/06 03:21:52;;;;;;;48.65;25.17;;;8.20;99.90;;;;;;5047438;28;20033;-75
2022/05/06 03:24:18;;;;;;;58.22;26.40;;;8.40;99.90;;;;;;5033949;28;20037;-75
2022/05/06 03:26:43;;;;;;;69.15;27.55;;;8.50;99.90;;;;;;5035898;28;20060;-75
2022/05/06 03:29:09;;;;;;;118.13;31.40;;;8.50;99.90;;;;;;5027337;28;20123;-75
2022/05/06 03:31:36;;;;;;;157.10;31.33;;;8.50;99.90;;;;;;5040811;28;20503;-75
2022/05/06 03:34:02;;;;;;;602.97;40.35;;;8.60;99.90;;;;;;5046780;28;20053;-75
2022/05/06 03:36:28;;;;;;;258.25;37.20;;;8.60;99.90;;;;;;5048511;28;20498;-75
2022/05/06 03:38:53;;;;;;;168.05;34.28;;;8.60;99.90;;;;;;5050475;28;20039;-76
2022/05/06 03:41:19;;;;;;;258.38;36.85;;;8.70;99.90;;;;;;5031774;28;20029;-75
2022/05/06 03:43:44;;;;;;;221.05;36.92;;;8.70;99.90;;;;;;5041054;28;20490;-75
2022/05/06 03:46:10;;;;;;;310.40;37.15;;;8.80;99.90;;;;;;5047628;28;20041;-75
2022/05/06 03:48:35;;;;;;;328.17;32.30;;;8.90;99.90;;;;;;5047984;28;20063;-76
2022/05/06 03:53:45;;;;;;;;;;;8.90;99.90;;;;;;5044402;28;20071;-75
2022/05/06 03:56:11;;;;;;;477.38;33.05;;;8.90;99.90;;;;;;5046033;28;19920;-76
2022/05/06 03:58:36;;;;;;;390.42;30.40;;;8.80;99.90;;;;;;5047351;28;20119;-75
2022/05/06 04:01:07;;;;;;;592.30;35.78;;;8.80;99.90;;;;;;5044166;28;20032;-75
2022/05/06 04:03:33;;;;;;;436.67;30.73;;;8.80;99.90;;;;;;5040213;28;20041;-76
2022/05/06 04:05:58;;;;;;;404.13;31.13;;;8.80;99.90;;;;;;5031905;28;20051;-76
2022/05/06 04:08:24;;;;;;;356.67;29.23;;;8.80;99.90;;;;;;5048506;28;20146;-76
2022/05/06 04:10:49;;;;;;;278.85;26.45;;;8.90;99.90;;;;;;5048442;28;20079;-76
2022/05/06 04:13:18;;;;;;;418.30;32.28;;;9.00;99.90;;;;;;5033052;28;20048;-76
2022/05/06 04:15:48;;;;;;;283.65;28.90;;;9.10;99.90;;;;;;5039432;28;20041;-76
2022/05/06 04:18:14;;;;;;;307.92;27.08;;;9.20;99.90;;;;;;5049632;28;20084;-76
2022/05/06 04:23:29;;;;;;;;;;;9.30;99.90;;;;;;5050601;28;20044;-75
2022/05/06 04:26:06;;;;;;;389.33;28.30;;;9.30;99.90;;;;;;5047307;28;20362;-76
2022/05/06 04:28:32;;;;;;;237.55;25.58;;;9.40;99.90;;;;;;5048019;28;20052;-76
2022/05/06 04:30:59;;;;;;;272.20;24.55;;;9.40;99.90;;;;;;5029784;28;20045;-76
2022/05/06 04:33:25;;;;;;;298.35;30.08;;;9.40;99.90;;;;;;5039146;28;20033;-76
2022/05/06 04:35:51;;;;;;;135.93;24.38;;;9.40;99.90;;;;;;5047439;28;20037;-76
2022/05/06 04:38:17;;;;;;;278.65;27.88;;;9.40;99.90;;;;;;5041661;28;20411;-76
2022/05/06 04:40:43;;;;;;;106.85;22.00;;;9.50;99.90;;;;;;5044998;28;20041;-76
2022/05/06 04:43:10;;;;;;;387.42;31.85;;;9.50;99.90;;;;;;5048093;28;20556;-77
2022/05/06 04:45:43;;;;;;;251.02;25.40;;;9.50;99.90;;;;;;5046644;28;20037;-76
2022/05/06 04:48:11;;;;;;;179.35;25.00;;;9.50;99.90;;;;;;5024454;28;20045;-76
2022/05/06 04:50:40;;;;;;;134.27;24.70;;;9.60;99.90;;;;;;5048005;28;20049;-76
2022/05/06 04:53:07;;;;;;;131.43;25.30;;;9.60;99.90;;;;;;5040159;28;20037;-76
2022/05/06 04:55:34;;;;;;;143.65;25.38;;;9.60;99.90;;;;;;5047310;28;20045;-76
2022/05/06 04:57:59;;;;;;;112.30;23.20;;;9.60;99.90;;;;;;5029722;28;20063;-76
2022/05/06 05:00:25;;;;;;;140.93;24.60;;;9.60;99.90;;;;;;5043649;28;20032;-76
2022/05/06 05:02:51;;;;;;;127.70;24.35;;;9.60;99.90;;;;;;5047967;28;20051;-76
2022/05/06 05:05:16;;;;;;;75.30;22.88;;;9.50;99.90;;;;;;5048450;28;20037;-76
2022/05/06 05:07:42;;;;;;;108.47;24.27;;;9.60;99.90;;;;;;5045311;28;20045;-76
2022/05/06 05:10:08;;;;;;;88.45;23.23;;;9.60;99.90;;;;;;5026073;28;20038;-77
2022/05/06 05:12:35;;;;;;;89.07;23.10;;;9.60;99.90;;;;;;5034711;28;20033;-77
2022/05/06 05:15:01;;;;;;;117.93;24.63;;;9.60;99.90;;;;;;5046272;28;20128;-76
2022/05/06 05:17:26;;;;;;;138.52;26.60;;;9.60;99.90;;;;;;5048226;28;20045;-77
2022/05/06 05:19:52;;;;;;;198.40;29.08;;;9.60;99.90;;;;;;5043104;28;20041;-76
2022/05/06 05:22:18;;;;;;;141.07;30.25;;;9.60;99.90;;;;;;5032587;28;20037;-77
2022/05/06 05:24:44;;;;;;;131.55;30.45;;;9.50;99.90;;;;;;5048812;28;20037;-77
2022/05/06 05:27:10;;;;;;;141.40;32.72;;;9.60;99.90;;;;;;5035122;28;20049;-76
2022/05/06 05:29:36;;;;;;;58.72;31.38;;;9.50;99.90;;;;;;5035682;28;20041;-77
2022/05/06 05:32:02;;;;;;;82.15;31.65;;;9.50;99.90;;;;;;5049688;28;20045;-77
2022/05/06 05:34:27;;;;;;;83.50;32.55;;;9.60;99.90;;;;;;5051274;28;20478;-77
2022/05/06 05:36:53;;;;;;;77.25;29.67;;;9.60;99.90;;;;;;5033936;28;20087;-77
2022/05/06 05:39:19;;;;;;;76.05;28.50;;;9.70;99.90;;;;;;5052560;28;20029;-77
2022/05/06 05:41:44;;;;;;;246.90;31.48;;;9.80;99.90;;;;;;5049209;28;20166;-77
2022/05/06 05:49:38;;;;;;;96.53;28.05;;;9.80;99.90;;;;;;5052012;28;20045;-77
2022/05/06 05:52:05;;;;;;;217.60;28.35;;;9.80;99.90;;;;;;5050920;28;20574;-77
2022/05/06 05:54:30;;;;;;;70.20;24.10;;;9.80;99.90;;;;;;5051221;28;20045;-77
2022/05/06 05:56:56;;;;;;;131.02;25.65;;;9.80;99.90;;;;;;5052441;28;20045;-76
2022/05/06 05:59:22;;;;;;;92.90;23.80;;;9.90;99.90;;;;;;5051757;28;20479;-77
2022/05/06 06:01:49;;;;;;;107.55;24.75;;;9.90;99.90;;;;;;5052696;28;20086;-77
2022/05/06 06:04:18;;;;;;;147.07;25.42;;;10.00;99.90;;;;;;5051454;28;20102;-77
2022/05/06 06:06:43;;;;;;;96.75;24.60;;;9.90;99.90;;;;;;5051579;28;20391;-78
2022/05/06 06:09:09;;;;;;;90.22;24.52;;;9.90;99.90;;;;;;5051960;28;20044;-77
2022/05/06 06:11:35;;;;;;;92.95;24.77;;;9.90;99.90;;;;;;5052157;28;20549;-78
2022/05/06 06:14:02;;;;;;;77.38;24.98;;;9.90;99.90;;;;;;5035001;28;20419;-77
2022/05/06 06:16:28;;;;;;;58.25;24.02;;;9.90;99.90;;;;;;5035603;28;20037;-78
2022/05/06 06:18:55;;;;;;;57.15;24.05;;;10.00;99.90;;;;;;5052246;28;20414;-77
2022/05/06 06:21:21;;;;;;;92.32;24.73;;;10.00;99.90;;;;;;5052071;28;20095;-77
2022/05/06 06:23:47;;;;;;;91.03;25.13;;;10.10;99.90;;;;;;5051395;28;20041;-77
2022/05/06 06:26:12;;;;;;;77.75;24.98;;;10.20;99.90;;;;;;5051239;28;20040;-78
2022/05/06 06:28:38;;;;;;;93.97;26.00;;;10.40;99.90;;;;;;5050930;28;20033;-78
2022/05/06 06:31:03;;;;;;;60.95;26.45;;;10.60;99.90;;;;;;5035399;28;20040;-78
2022/05/06 06:33:29;;;;;;;50.47;25.23;;;10.70;99.90;;;;;;5050974;28;20138;-78
2022/05/06 06:35:54;;;;;;;75.03;26.10;;;10.90;99.90;;;;;;5051119;28;20037;-78
2022/05/06 06:38:20;;;;;;;56.85;26.40;;;11.00;99.90;;;;;;5051670;28;20051;-78
2022/05/06 06:40:45;;;;;;;76.28;26.83;;;11.10;99.90;;;;;;5052026;28;20041;-78
2022/05/06 06:43:11;;;;;;;42.15;24.65;;;11.10;99.90;;;;;;5053137;28;20041;-78
2022/05/06 06:45:37;;;;;;;47.90;26.20;;;11.20;99.90;;;;;;5051141;28;20037;-78
2022/05/06 06:48:03;;;;;;;47.75;27.25;;;11.20;99.90;;;;;;5051678;28;20051;-79
2022/05/06 06:50:29;;;;;;;47.42;26.60;;;11.20;99.90;;;;;;5050816;28;20041;-78
2022/05/06 06:52:55;;;;;;;48.25;26.60;;;11.30;99.90;;;;;;5042942;28;20419;-78
2022/05/06 06:55:21;;;;;;;52.00;27.80;;;11.30;99.90;;;;;;5067456;28;20040;-78
2022/05/06 06:57:47;;;;;;;50.15;28.00;;;11.30;99.90;;;;;;5037648;28;20041;-78
2022/05/06 07:00:13;;;;;;;47.13;27.38;;;11.40;99.90;;;;;;5051278;28;20037;-78
2022/05/06 07:02:40;;;;;;;50.05;28.17;;;11.40;99.90;;;;;;5050868;28;20033;-78
2022/05/06 07:05:05;;;;;;;47.85;26.35;;;11.50;99.90;;;;;;5068041;28;20032;-78
2022/05/06 07:12:59;;;;;;;45.10;25.67;;;11.90;99.90;;;;;;5050820;28;20491;-78
2022/05/06 07:15:27;;;;;;;48.83;26.63;;;11.90;99.90;;;;;;5033451;28;20045;-78
2022/05/06 07:17:52;;;;;;;42.88;24.67;;;12.00;99.90;;;;;;5048726;28;20652;-78
2022/05/06 07:20:18;;;;;;;34.22;21.20;;;12.10;99.90;;;;;;5065357;28;20051;-78
2022/05/06 07:22:43;;;;;;;30.73;18.65;;;12.20;99.90;;;;;;5049086;28;20055;-78
2022/05/06 07:25:09;;;;;;;30.50;18.63;;;12.30;99.90;;;;;;5049656;28;20112;-78
2022/05/06 07:27:35;;;;;;;28.65;18.10;;;12.30;99.90;;;;;;5050012;28;20037;-78
2022/05/06 07:30:06;;;;;;;28.88;18.45;;;12.30;99.90;;;;;;5065741;28;20471;-78
2022/05/06 07:32:32;;;;;;;27.95;16.83;;;12.40;99.90;;;;;;5047403;28;20472;-78
2022/05/06 07:34:58;;;;;;;25.48;16.52;;;12.40;99.90;;;;;;5047715;28;20056;-78
2022/05/06 07:37:24;;;;;;;25.92;16.40;;;12.40;99.90;;;;;;5041805;28;20026;-78
2022/05/06 07:39:50;;;;;;;25.33;16.20;;;12.40;99.90;;;;;;5046301;28;20086;-78
2022/05/06 07:42:16;;;;;;;22.35;15.15;;;12.40;99.90;;;;;;5047034;28;20410;-79
2022/05/06 07:44:42;;;;;;;21.17;14.38;;;12.40;99.90;;;;;;5046315;28;20099;-78
2022/05/06 07:47:07;;;;;;;21.92;14.85;;;12.50;99.90;;;;;;5067018;28;20094;-78
2022/05/06 07:49:33;;;;;;;24.88;15.27;;;12.60;99.90;;;;;;5050278;28;20083;-78
2022/05/06 07:51:58;;;;;;;23.50;15.13;;;12.70;99.90;;;;;;5033360;28;20122;-78
2022/05/06 07:54:24;;;;;;;18.63;13.57;;;12.80;99.90;;;;;;5032542;28;20462;-78
2022/05/06 07:56:49;;;;;;;18.30;13.05;;;12.70;99.90;;;;;;5031806;28;20056;-79
2022/05/06 07:59:15;;;;;;;19.42;12.98;;;12.90;99.90;;;;;;5046306;28;20043;-79
2022/05/06 08:04:34;;;;;;;19.67;13.57;;;13.20;99.90;;;;;;5044435;28;20044;-79
2022/05/06 08:07:01;;;;;;;17.85;12.50;;;13.30;99.90;;;;;;5048237;28;20044;-78
2022/05/06 08:09:26;;;;;;;17.80;13.00;;;13.50;99.90;;;;;;5042320;28;20407;-78
2022/05/06 08:11:52;;;;;;;16.73;13.10;;;13.70;99.90;;;;;;5037621;28;20041;-79
2022/05/06 08:14:18;;;;;;;17.90;12.20;;;13.70;99.90;;;;;;5042409;28;20659;-78
2022/05/06 08:16:46;;;;;;;17.70;12.43;;;13.90;99.90;;;;;;5048612;28;20102;-78
2022/05/06 08:19:11;;;;;;;15.88;11.90;;;14.00;99.90;;;;;;5044120;28;20064;-78
2022/05/06 08:21:37;;;;;;;16.52;12.07;;;14.20;99.90;;;;;;5044652;28;20067;-78
2022/05/06 08:24:03;;;;;;;24.80;12.23;;;14.30;99.90;;;;;;5045174;28;20099;-79
2022/05/06 08:26:29;;;;;;;15.77;11.35;;;14.40;99.90;;;;;;5048316;28;20041;-79
2022/05/06 08:28:55;;;;;;;14.82;11.40;;;14.40;99.90;;;;;;5048999;28;20102;-79
2022/05/06 08:31:21;;;;;;;13.07;10.30;;;14.50;99.90;;;;;;5048061;28;20049;-78
2022/05/06 08:33:46;;;;;;;14.60;10.90;;;14.60;99.90;;;;;;5047368;28;20095;-78
2022/05/06 08:36:12;;;;;;;12.90;10.32;;;14.50;99.90;;;;;;5047389;28;20126;-79
2022/05/06 08:38:38;;;;;;;12.07;10.07;;;14.60;99.90;;;;;;5048084;28;20438;-79
2022/05/06 08:41:04;;;;;;;11.98;9.95;;;14.60;99.90;;;;;;5048481;28;20057;-78
2022/05/06 08:43:29;;;;;;;12.02;9.75;;;14.80;99.90;;;;;;5049770;28;20527;-78
2022/05/06 08:51:32;;;;;;;9.48;7.72;;;15.20;99.90;;;;;;5049498;28;19921;-78
2022/05/06 08:53:58;;;;;;;9.27;7.45;;;15.40;99.90;;;;;;5048980;28;20052;-79
2022/05/06 08:56:24;;;;;;;9.55;7.78;;;15.50;99.90;;;;;;5049173;28;20037;-79
2022/05/06 08:58:49;;;;;;;9.80;7.72;;;15.50;99.90;;;;;;5053741;28;20037;-79
2022/05/06 09:01:17;;;;;;;7.60;6.80;;;15.50;99.90;;;;;;5053517;28;20029;-79
2022/05/06 09:03:48;;;;;;;7.55;6.70;;;15.60;99.90;;;;;;5053197;28;20035;-79
2022/05/06 09:06:22;;;;;;;7.80;7.00;;;15.70;99.90;;;;;;5053602;28;20037;-78
2022/05/06 09:08:50;;;;;;;9.23;6.95;;;15.80;99.90;;;;;;5050930;28;20072;-78
2022/05/06 09:14:06;;;;;;;7.95;7.13;;;16.00;99.90;;;;;;5052618;28;20099;-78
2022/05/06 09:16:40;;;;;;;7.93;6.68;;;16.00;99.90;;;;;;5050520;28;20045;-78
2022/05/06 09:19:27;;;;;;;7.65;6.85;;;16.10;99.90;;;;;;5053317;28;20041;-78
2022/05/06 09:22:13;;;;;;;8.00;7.20;;;16.10;99.90;;;;;;5049451;28;20041;-78
2022/05/06 09:24:40;;;;;;;8.25;7.10;;;16.10;99.90;;;;;;5046276;28;20052;-78
2022/05/06 09:27:09;;;;;;;8.18;7.28;;;16.10;99.90;;;;;;5030711;28;20036;-78
2022/05/06 09:29:46;;;;;;;10.57;6.68;;;16.10;99.90;;;;;;5052319;28;20048;-78
2022/05/06 09:32:17;;;;;;;9.75;6.80;;;16.10;99.90;;;;;;5049108;28;20040;-78
2022/05/06 09:34:48;;;;;;;7.20;6.18;;;16.00;99.90;;;;;;5049151;28;20045;-78
2022/05/06 09:37:30;;;;;;;7.78;6.03;;;16.20;99.90;;;;;;5029854;28;20037;-78
2022/05/06 09:40:14;;;;;;;9.38;6.25;;;16.40;99.90;;;;;;5044000;28;20041;-78
2022/05/06 09:42:58;;;;;;;7.57;6.13;;;16.70;99.90;;;;;;5047493;28;20514;-78
2022/05/06 09:45:34;;;;;;;6.10;5.50;;;16.80;99.90;;;;;;5032583;28;20550;-78
2022/05/06 09:48:01;;;;;;;6.65;5.80;;;17.20;99.90;;;;;;5044796;28;20036;-78
2022/05/06 09:50:54;;;;;;;6.97;6.07;;;17.30;99.90;;;;;;5045858;28;20381;-77
2022/05/06 09:53:20;;;;;;;7.15;6.30;;;17.50;99.90;;;;;;5044293;28;20114;-78
2022/05/06 09:55:47;;;;;;;6.63;5.93;;;17.70;99.90;;;;;;5048305;28;20048;-79
2022/05/06 09:58:16;;;;;;;7.65;6.50;;;17.90;99.90;;;;;;5069095;28;20556;-77
2022/05/06 10:00:42;;;;;;;7.00;5.82;;;17.80;99.90;;;;;;5027205;28;20045;-78
2022/05/06 10:03:11;;;;;;;7.72;6.18;;;17.60;99.90;;;;;;5047626;28;20071;-78
2022/05/06 10:05:38;;;;;;;15.75;7.05;;;17.70;99.90;;;;;;5046945;28;20060;-77
2022/05/06 10:08:08;;;;;;;7.03;6.32;;;17.80;99.90;;;;;;5028153;28;20053;-78
2022/05/06 10:10:41;;;;;;;7.80;6.60;;;17.80;99.90;;;;;;5048656;28;20044;-77
2022/05/06 10:13:19;;;;;;;7.57;6.43;;;17.90;99.90;;;;;;5052512;28;20567;-77
2022/05/06 10:15:49;;;;;;;8.38;6.30;;;18.00;99.90;;;;;;5031732;28;20041;-78
2022/05/06 10:18:30;;;;;;;7.90;6.70;;;18.40;99.90;;;;;;5048904;28;20045;-78
2022/05/06 10:20:56;;;;;;;7.22;6.10;;;18.70;99.90;;;;;;5040835;28;20430;-78
2022/05/06 10:23:23;;;;;;;6.15;5.50;;;18.80;99.90;;;;;;5052008;28;20040;-78
2022/05/06 10:25:52;;;;;;;6.80;5.57;;;19.00;99.90;;;;;;5051492;28;20048;-77
2022/05/06 10:34:09;;;;;;;7.10;5.30;;;19.00;99.90;;;;;;5046400;28;20041;-78
2022/05/06 10:36:52;;;;;;;7.35;5.07;;;19.00;99.90;;;;;;5051968;28;20095;-78
2022/05/06 10:39:32;;;;;;;4.75;4.35;;;18.80;99.90;;;;;;5051739;28;20068;-78
2022/05/06 10:42:18;;;;;;;6.70;4.63;;;18.80;99.90;;;;;;5050723;28;20475;-79
2022/05/06 10:44:49;;;;;;;5.65;4.78;;;19.20;99.90;;;;;;5051237;28;20044;-78
2022/05/06 10:47:20;;;;;;;5.75;4.63;;;19.50;99.90;;;;;;5051418;28;20052;-79
2022/05/06 10:49:47;;;;;;;7.38;4.10;;;19.70;99.90;;;;;;5035117;28;20045;-78
2022/05/06 10:52:20;;;;;;;5.40;4.90;;;20.00;99.90;;;;;;5051823;28;20051;-78
2022/05/06 10:54:54;;;;;;;5.18;4.50;;;20.00;99.90;;;;;;5051428;28;20047;-79
2022/05/06 10:57:24;;;;;;;4.65;3.60;;;20.00;99.90;;;;;;5051788;28;20564;-79
2022/05/06 11:00:06;;;;;;;4.70;4.10;;;20.10;99.90;;;;;;5051690;28;20086;-79
2022/05/06 11:02:36;;;;;;;3.78;2.35;;;20.20;99.90;;;;;;5051591;28;20037;-79
2022/05/06 11:05:03;;;;;;;4.78;2.00;;;20.30;99.90;;;;;;5050957;28;20041;-79
2022/05/06 11:07:31;;;;;;;2.85;1.90;;;20.10;99.90;;;;;;5051715;28;20041;-78
2022/05/06 11:09:57;;;;;;;4.38;2.10;;;19.80;99.90;;;;;;5034976;28;20037;-79
2022/05/06 11:12:30;;;;;;;3.25;1.50;;;19.70;99.90;;;;;;5030734;28;20037;-79
2022/05/06 11:14:59;;;;;;;3.63;2.13;;;19.70;99.90;;;;;;5050562;28;20047;-78
2022/05/06 11:17:25;;;;;;;5.13;2.40;;;19.60;99.90;;;;;;5025697;28;20054;-78
2022/05/06 11:19:51;;;;;;;4.85;2.40;;;19.40;99.90;;;;;;5030765;28;20124;-78
2022/05/06 11:22:17;;;;;;;2.88;2.10;;;19.50;99.90;;;;;;5031800;28;20045;-79
2022/05/06 11:24:43;;;;;;;3.35;2.20;;;19.60;99.90;;;;;;5014678;28;20449;-79
2022/05/06 11:27:12;;;;;;;2.65;2.10;;;20.00;99.90;;;;;;5031435;28;20056;-79
2022/05/06 11:29:55;;;;;;;3.58;2.13;;;20.10;99.90;;;;;;5031442;28;20045;-80
2022/05/06 11:32:23;;;;;;;3.80;2.10;;;20.40;99.90;;;;;;5031554;28;20124;-80
2022/05/06 11:34:57;;;;;;;2.75;2.10;;;20.50;99.90;;;;;;5030376;28;20049;-79
2022/05/06 11:37:24;;;;;;;2.63;2.03;;;20.40;99.90;;;;;;5031522;28;20088;-80
2022/05/06 11:39:50;;;;;;;3.38;2.30;;;20.50;99.90;;;;;;5030998;28;20099;-80
2022/05/06 11:42:23;;;;;;;3.88;2.40;;;20.90;99.90;;;;;;5031120;28;20041;-80
2022/05/06 11:47:43;;;;;;;9.50;3.08;;;21.30;99.90;;;;;;5031711;28;20053;-79
2022/05/06 11:50:10;;;;;;;4.38;2.70;;;20.90;99.90;;;;;;5031004;28;20041;-80
2022/05/06 11:52:39;;;;;;;3.47;3.00;;;20.90;99.90;;;;;;5014913;28;20047;-79
2022/05/06 11:55:06;;;;;;;4.70;3.17;;;21.00;99.90;;;;;;5030983;28;20403;-80
2022/05/06 11:57:34;;;;;;;3.45;2.90;;;21.10;99.90;;;;;;5030671;28;20041;-80
2022/05/06 11:59:59;;;;;;;3.92;3.05;;;21.00;99.90;;;;;;5030933;28;20128;-79
2022/05/06 12:02:26;;;;;;;3.63;2.95;;;21.20;99.90;;;;;;5031009;28;20053;-79
2022/05/06 12:04:51;;;;;;;3.50;2.75;;;21.40;99.90;;;;;;5029747;28;20136;-80
2022/05/06 12:07:17;;;;;;;6.40;2.40;;;21.60;99.90;;;;;;5031029;28;20033;-79
2022/05/06 12:09:44;;;;;;;3.63;1.90;;;21.90;99.90;;;;;;5031386;28;20095;-79
2022/05/06 12:12:10;;;;;;;4.53;1.90;;;22.10;99.90;;;;;;5031380;28;20049;-80
2022/05/06 12:14:37;;;;;;;3.65;1.50;;;22.00;99.90;;;;;;5031182;28;20030;-79
2022/05/06 12:17:12;;;;;;;3.78;1.40;;;21.60;99.90;;;;;;5032382;28;20037;-80
2022/05/06 12:19:42;;;;;;;3.20;1.42;;;21.20;99.90;;;;;;5048206;28;20033;-79
2022/05/06 12:22:10;;;;;;;2.30;1.40;;;20.90;99.90;;;;;;5032651;28;20042;-79
2022/05/06 12:24:55;;;;;;;10.05;1.67;;;20.60;99.90;;;;;;5031475;28;20041;-78
2022/05/06 12:27:29;;;;;;;3.08;1.75;;;20.60;99.90;;;;;;5048038;28;20195;-80
2022/05/06 12:29:55;;;;;;;2.72;1.48;;;20.80;99.90;;;;;;5048819;28;20064;-80
2022/05/06 12:32:21;;;;;;;4.30;1.60;;;21.20;99.90;;;;;;5049892;28;20575;-80
2022/05/06 12:34:46;;;;;;;2.55;1.67;;;21.20;99.90;;;;;;5050933;28;20106;-79
2022/05/06 12:37:14;;;;;;;3.00;1.70;;;21.10;99.40;;;;;;5051079;28;20037;-79
2022/05/06 12:39:45;;;;;;;3.80;2.15;;;21.40;99.90;;;;;;5051242;28;20049;-80
2022/05/06 12:42:21;;;;;;;3.58;2.38;;;21.70;99.90;;;;;;5051532;28;20040;-81
2022/05/06 12:44:47;;;;;;;4.95;2.42;;;21.80;99.90;;;;;;5049447;28;20044;-80
2022/05/06 12:50:09;;;;;;;3.38;2.28;;;21.90;99.90;;;;;;5052905;28;20052;-80
2022/05/06 12:52:35;;;;;;;3.33;2.40;;;21.60;99.90;;;;;;5051505;28;20511;-82
2022/05/06 12:55:05;;;;;;;4.65;3.08;;;21.40;99.90;;;;;;5051651;28;20080;-80
2022/05/06 12:57:30;;;;;;;3.90;2.63;;;21.50;99.90;;;;;;5053089;28;20041;-81
2022/05/06 12:59:56;;;;;;;5.38;3.35;;;21.60;99.90;;;;;;5053573;28;20041;-80
2022/05/06 13:02:22;;;;;;;4.95;3.80;;;21.70;99.90;;;;;;5035914;28;20037;-80
2022/05/06 13:04:47;;;;;;;5.43;3.30;;;21.90;99.90;;;;;;5051957;28;20102;-81
2022/05/06 13:07:14;;;;;;;4.82;3.50;;;22.20;99.90;;;;;;5054607;28;20045;-81
2022/05/06 13:09:40;;;;;;;5.53;3.50;;;22.50;99.90;;;;;;5050160;28;20473;-77
2022/05/06 13:12:06;;;;;;;4.05;2.92;;;22.30;99.90;;;;;;5050365;28;20037;-81
2022/05/06 13:14:31;;;;;;;4.57;3.28;;;21.80;99.90;;;;;;5028761;28;20047;-81
2022/05/06 13:16:57;;;;;;;4.72;3.70;;;21.50;99.90;;;;;;5029101;28;20407;-80
2022/05/06 13:19:23;;;;;;;5.75;3.90;;;21.10;99.90;;;;;;5048851;28;20459;-79
2022/05/06 13:21:48;;;;;;;7.78;4.20;;;20.90;99.90;;;;;;5050563;28;20211;-81
2022/05/06 13:24:14;;;;;;;6.72;4.03;;;20.90;99.90;;;;;;5051585;28;20029;-81
2022/05/06 13:26:39;;;;;;;5.82;3.58;;;20.90;99.90;;;;;;5050045;28;20049;-81